Current Weather

Phoenix-Mesa Gateway

Phoenix, Arizona (KIWA)

Report from: Friday, April 19, 2024 1:35 AM MST
Current time: Friday, April 19, 2024 1:52 AM MST

Nearby weather – Weather history – Daily summaries
Weather forecast

Temperature18.8°C (65.8°F)
Dew point2.0°C (35.6°F)
Winds 4 kts (2.1 m/s, 4.6 mph) East (90°)
Visibility10 mi. (16.1 km)
Clouds Sky clear
Altimeter29.88 in.Hg (1012 mB)
Relative humidity33 %
Density altitude601 ft. (183 m)
Remarks Fully automated report
Automated weather observing station with precipitation discriminator
Flight conditions Visual Meteorological Conditions
Raw dataKIWA 190835Z AUTO 09004KT 10SM CLR 19/02 A2988 RMK AO2 T01880020
An error has occurred. This application may no longer respond until reloaded. Reload 🗙